createdAt,value
2022-07-29T00:00:35.255Z,19.02
2022-07-29T00:02:36.267Z,18.99
2022-07-29T00:04:37.486Z,19.04
2022-07-29T00:06:38.709Z,18.91
2022-07-29T00:08:40.479Z,18.87
2022-07-29T00:10:41.391Z,18.85
2022-07-29T00:12:42.496Z,18.92
2022-07-29T00:14:43.434Z,18.8
2022-07-29T00:16:45.340Z,18.82
2022-07-29T00:18:46.961Z,18.78
2022-07-29T00:20:47.873Z,18.62
2022-07-29T00:22:49.450Z,18.52
2022-07-29T00:24:51.299Z,18.43
2022-07-29T00:26:52.585Z,18.35
2022-07-29T00:29:06.484Z,18.31
2022-07-29T00:30:55.784Z,18.24
2022-07-29T00:32:57.521Z,18.14
2022-07-29T00:34:58.916Z,18.05
2022-07-29T00:36:59.989Z,18
2022-07-29T00:39:01.373Z,17.85
2022-07-29T00:41:02.482Z,17.87
2022-07-29T00:43:03.610Z,17.81
2022-07-29T00:45:05.095Z,17.77
2022-07-29T00:47:06.667Z,17.65
2022-07-29T00:49:08.360Z,17.68
2022-07-29T00:51:09.939Z,17.51
2022-07-29T00:53:10.936Z,17.51
2022-07-29T00:55:11.964Z,17.5
2022-07-29T00:57:12.999Z,17.44
2022-07-29T00:59:14.585Z,17.38
2022-07-29T01:01:16.189Z,17.36
2022-07-29T01:03:17.700Z,17.37
2022-07-29T01:05:19.102Z,17.28
2022-07-29T01:07:20.878Z,17.25
2022-07-29T01:09:22.324Z,17.25
2022-07-29T01:11:23.246Z,17.25
2022-07-29T01:13:24.684Z,17.33
2022-07-29T01:15:26.104Z,17.3
2022-07-29T01:17:27.384Z,17.17
2022-07-29T01:19:28.587Z,17.07
2022-07-29T01:21:30.134Z,16.98
2022-07-29T01:23:32.020Z,16.88
2022-07-29T01:25:33.584Z,16.96
2022-07-29T01:27:35.260Z,16.9
2022-07-29T01:29:39.062Z,16.57
2022-07-29T01:31:38.514Z,16.43
2022-07-29T01:33:39.307Z,16.56
2022-07-29T01:35:40.763Z,16.53
2022-07-29T01:37:41.778Z,16.33
2022-07-29T01:39:43.647Z,16.27
2022-07-29T01:41:45.465Z,16.2
2022-07-29T01:43:47.230Z,16.16
2022-07-29T01:45:48.643Z,16.08
2022-07-29T01:47:50.076Z,15.98
2022-07-29T01:49:51.405Z,15.86
2022-07-29T01:51:52.416Z,15.81
2022-07-29T01:53:54.266Z,15.76
2022-07-29T01:55:55.445Z,15.68
2022-07-29T01:57:57.116Z,15.77
2022-07-29T01:59:58.108Z,15.74
2022-07-29T02:01:59.515Z,16
2022-07-29T02:04:01.124Z,16
2022-07-29T02:06:02.447Z,16.02
2022-07-29T02:08:03.781Z,15.96
2022-07-29T02:10:05.371Z,15.86
2022-07-29T02:12:06.694Z,15.8
2022-07-29T02:14:07.615Z,15.64
2022-07-29T02:16:09.047Z,15.59
2022-07-29T02:18:10.041Z,15.76
2022-07-29T02:20:11.299Z,15.76
2022-07-29T02:22:13.158Z,15.68
2022-07-29T02:24:14.901Z,15.62
2022-07-29T02:26:16.397Z,15.64
2022-07-29T02:28:18.095Z,15.63
2022-07-29T02:30:19.072Z,15.78
2022-07-29T02:32:20.887Z,15.76
2022-07-29T02:34:21.979Z,15.7
2022-07-29T02:36:23.624Z,15.74
2022-07-29T02:38:25.156Z,15.69
2022-07-29T02:40:26.211Z,15.69
2022-07-29T02:42:27.365Z,15.7
2022-07-29T02:44:32.703Z,15.59
2022-07-29T02:46:29.850Z,15.52
2022-07-29T02:48:31.280Z,15.58
2022-07-29T02:50:33.023Z,15.55
2022-07-29T02:52:34.451Z,15.31
2022-07-29T02:54:35.753Z,15.22
2022-07-29T02:56:37.438Z,15.21
2022-07-29T02:58:38.405Z,15.17
2022-07-29T03:00:39.354Z,15.21
2022-07-29T03:02:40.496Z,15.29
2022-07-29T03:04:41.568Z,15.24
2022-07-29T03:06:42.608Z,15.2
2022-07-29T03:08:44.108Z,15.21
2022-07-29T03:10:45.562Z,15.26
2022-07-29T03:12:46.580Z,15.22
2022-07-29T03:14:48.301Z,15.08
2022-07-29T03:16:49.928Z,14.94
2022-07-29T03:18:51.057Z,14.86
2022-07-29T03:20:52.946Z,14.91
2022-07-29T03:22:54.263Z,14.9
2022-07-29T03:24:56.142Z,14.93
2022-07-29T03:26:57.078Z,14.93
2022-07-29T03:28:58.724Z,14.81
2022-07-29T03:31:00.369Z,14.73
2022-07-29T03:33:01.460Z,14.75
2022-07-29T03:35:03.215Z,14.76
2022-07-29T03:37:04.303Z,14.77
2022-07-29T03:39:05.970Z,14.76
2022-07-29T03:41:07.153Z,14.71
2022-07-29T03:43:08.235Z,14.78
2022-07-29T03:45:09.892Z,14.81
2022-07-29T03:47:11.522Z,14.75
2022-07-29T03:49:13.376Z,14.78
2022-07-29T03:51:14.263Z,14.84
2022-07-29T03:53:15.920Z,14.86
2022-07-29T03:55:17.467Z,14.81
2022-07-29T03:57:19.020Z,14.78
2022-07-29T03:59:20.332Z,14.85
2022-07-29T04:01:21.816Z,14.83
2022-07-29T04:03:23.083Z,14.78
2022-07-29T04:05:24.698Z,14.67
2022-07-29T04:07:26.576Z,14.7
2022-07-29T04:09:28.462Z,14.61
2022-07-29T04:11:29.670Z,14.5
2022-07-29T04:13:31.458Z,14.43
2022-07-29T04:15:32.777Z,14.37
2022-07-29T04:17:33.872Z,14.31
2022-07-29T04:19:34.888Z,14.26
2022-07-29T04:21:36.337Z,14.2
2022-07-29T04:23:45.875Z,14.22
2022-07-29T04:25:39.435Z,14.25
2022-07-29T04:27:41.259Z,14.29
2022-07-29T04:29:56.444Z,14.37
2022-07-29T04:31:44.084Z,14.49
2022-07-29T04:33:45.075Z,14.49
2022-07-29T04:35:47.222Z,14.51
2022-07-29T04:37:47.457Z,14.48
2022-07-29T04:39:49.302Z,14.31
2022-07-29T04:41:50.665Z,14.25
2022-07-29T04:43:52.389Z,14.32
2022-07-29T04:45:53.758Z,14.8
2022-07-29T04:47:55.562Z,15.32
2022-07-29T04:49:56.595Z,15.88
2022-07-29T04:51:57.851Z,16.28
2022-07-29T04:53:59.273Z,16.66
2022-07-29T04:56:00.387Z,17.45
2022-07-29T04:58:02.179Z,18.4
2022-07-29T05:00:03.108Z,17.38
2022-07-29T05:02:04.183Z,17.33
2022-07-29T05:04:05.555Z,16.97
2022-07-29T05:06:07.088Z,17.39
2022-07-29T05:08:08.126Z,18.27
2022-07-29T05:10:52.871Z,19.08
2022-07-29T05:12:54.186Z,18.83
2022-07-29T05:14:55.215Z,19.5
2022-07-29T05:16:56.229Z,20.29
2022-07-29T05:18:57.261Z,19.34
2022-07-29T05:20:58.545Z,17.72
2022-07-29T05:22:59.993Z,17.32
2022-07-29T05:25:04.360Z,17.02
2022-07-29T05:27:02.895Z,17.35
2022-07-29T05:29:04.111Z,17.82
2022-07-29T05:31:05.982Z,17.56
2022-07-29T05:33:06.961Z,17.53
2022-07-29T05:35:07.958Z,17.82
2022-07-29T05:37:09.292Z,18.27
2022-07-29T05:39:10.753Z,18.23
2022-07-29T05:41:11.732Z,18.17
2022-07-29T05:43:12.881Z,18.47
2022-07-29T05:45:14.274Z,18.01
2022-07-29T05:47:15.486Z,18.49
2022-07-29T05:49:23.003Z,18.27
2022-07-29T05:51:18.334Z,18.12
2022-07-29T05:53:20.636Z,17.92
2022-07-29T05:55:21.431Z,17.9
2022-07-29T05:57:22.919Z,18.39
2022-07-29T05:59:27.123Z,18.42
2022-07-29T06:01:25.720Z,18.75
2022-07-29T06:03:26.663Z,18.85
2022-07-29T06:05:27.593Z,19.3
2022-07-29T06:07:28.725Z,19.4
2022-07-29T06:09:30.108Z,18.82
2022-07-29T06:11:31.461Z,18.74
2022-07-29T06:13:33.082Z,18.76
2022-07-29T06:15:34.071Z,19.07
2022-07-29T06:17:35.364Z,19.58
2022-07-29T06:19:36.433Z,19.98
2022-07-29T06:21:38.644Z,21.15
2022-07-29T06:23:39.466Z,21.05
2022-07-29T06:25:40.793Z,21.03
2022-07-29T06:27:42.420Z,20.32
2022-07-29T06:29:43.884Z,20.22
2022-07-29T06:31:45.373Z,20.28
2022-07-29T06:33:47.530Z,20.58
2022-07-29T06:37:49.875Z,21.36
2022-07-29T06:39:51.328Z,21.38
2022-07-29T06:41:52.787Z,21.31
2022-07-29T06:43:54.715Z,21.96
2022-07-29T06:45:55.340Z,22.56
2022-07-29T06:47:56.349Z,22.87
2022-07-29T06:49:57.510Z,23.16
2022-07-29T06:51:58.960Z,23.03
2022-07-29T06:54:02.569Z,22.9
2022-07-29T06:56:01.858Z,22.8
2022-07-29T06:58:02.876Z,22.9
2022-07-29T07:00:04.231Z,23.23
2022-07-29T07:02:05.670Z,23.36
2022-07-29T07:04:07.445Z,23.1
2022-07-29T07:06:13.230Z,23.8
2022-07-29T07:08:10.072Z,24.39
2022-07-29T07:10:11.093Z,24.38
2022-07-29T07:12:11.894Z,24.02
2022-07-29T07:14:13.560Z,24.55
2022-07-29T07:16:15.050Z,24.38
2022-07-29T07:18:16.406Z,24.17
2022-07-29T07:20:17.996Z,24.45
2022-07-29T07:22:19.366Z,24.71
2022-07-29T07:24:20.214Z,24.91
2022-07-29T07:26:21.878Z,25.36
2022-07-29T07:28:24.813Z,24.52
2022-07-29T07:30:25.177Z,24.26
2022-07-29T07:32:26.537Z,24.09
2022-07-29T07:34:28.266Z,24.79
2022-07-29T07:36:29.296Z,24.93
2022-07-29T07:38:30.925Z,24.57
2022-07-29T07:40:33.503Z,24.52
2022-07-29T07:42:34.421Z,24.84
2022-07-29T07:44:46.422Z,24.9
2022-07-29T07:46:37.368Z,24.97
2022-07-29T07:48:38.462Z,24.87
2022-07-29T07:50:40.118Z,24.8
2022-07-29T07:52:41.126Z,24.79
2022-07-29T07:54:42.746Z,24.7
2022-07-29T07:56:44.256Z,24.46
2022-07-29T07:58:45.910Z,24.16
2022-07-29T08:00:47.494Z,24.19
2022-07-29T08:02:49.277Z,24.33
2022-07-29T08:04:50.466Z,24.38
2022-07-29T08:06:51.812Z,24.45
2022-07-29T08:08:56.208Z,24.57
2022-07-29T08:10:54.574Z,24.46
2022-07-29T08:12:56.246Z,24.73
2022-07-29T08:14:57.500Z,24.61
2022-07-29T08:16:59.173Z,24.48
2022-07-29T08:19:00.873Z,24.48
2022-07-29T08:21:02.266Z,24.61
2022-07-29T08:23:03.157Z,24.78
2022-07-29T08:25:04.255Z,25.18
2022-07-29T08:27:12.909Z,25.5
2022-07-29T08:29:07.113Z,26.57
2022-07-29T08:31:08.463Z,26.85
2022-07-29T08:33:09.839Z,27.29
2022-07-29T08:35:10.797Z,26.75
2022-07-29T08:37:12.823Z,27.53
2022-07-29T08:39:14.338Z,26.81
2022-07-29T08:41:15.239Z,26.36
2022-07-29T08:43:16.255Z,26.49
2022-07-29T08:45:17.053Z,26.6
2022-07-29T08:47:18.171Z,26.6
2022-07-29T08:49:19.020Z,25.84
2022-07-29T08:51:20.348Z,25.57
2022-07-29T08:53:21.719Z,25.58
2022-07-29T08:55:22.848Z,25.81
2022-07-29T08:57:24.474Z,25.86
2022-07-29T08:59:25.295Z,26.02
2022-07-29T09:01:35.425Z,25.81
2022-07-29T09:03:27.065Z,25.33
2022-07-29T09:05:28.691Z,25.55
2022-07-29T09:07:32.982Z,25.81
2022-07-29T09:09:31.319Z,26
2022-07-29T09:11:32.106Z,25.56
2022-07-29T09:13:33.035Z,25.51
2022-07-29T09:15:33.807Z,26.13
2022-07-29T09:17:35.316Z,26.3
2022-07-29T09:19:36.760Z,26.34
2022-07-29T09:21:38.514Z,26.53
2022-07-29T09:23:39.066Z,26.04
2022-07-29T09:25:40.167Z,26.11
2022-07-29T09:27:41.559Z,26.11
2022-07-29T09:29:42.523Z,26.22
2022-07-29T09:31:43.705Z,26.07
2022-07-29T09:33:44.584Z,25.91
2022-07-29T09:35:56.639Z,26.23
2022-07-29T09:37:47.273Z,25.82
2022-07-29T09:39:48.637Z,25.81
2022-07-29T09:41:49.581Z,25.68
2022-07-29T09:43:51.037Z,26.23
2022-07-29T09:45:52.597Z,26.61
2022-07-29T09:47:54.253Z,26.32
2022-07-29T09:49:56.567Z,26.28
2022-07-29T09:51:57.698Z,26.35
2022-07-29T09:53:59.362Z,26.82
2022-07-29T09:56:00.412Z,26.56
2022-07-29T09:58:01.557Z,27.04
2022-07-29T10:00:03.090Z,27.14
2022-07-29T10:02:04.562Z,26.86
2022-07-29T10:04:05.704Z,26.88
2022-07-29T10:06:06.533Z,27.12
2022-07-29T10:08:08.145Z,27.6
2022-07-29T10:10:09.544Z,27.65
2022-07-29T10:12:10.297Z,26.85
2022-07-29T10:14:11.708Z,27.08
2022-07-29T10:16:13.932Z,27.78
2022-07-29T10:18:14.887Z,27.83
2022-07-29T10:20:16.516Z,27.79
2022-07-29T10:22:31.322Z,27.88
2022-07-29T10:24:18.590Z,28.48
2022-07-29T10:26:19.856Z,29.07
2022-07-29T10:28:20.912Z,28.83
2022-07-29T10:30:22.519Z,29.17
2022-07-29T10:32:23.744Z,29.12
2022-07-29T10:34:25.713Z,28.69
2022-07-29T10:36:27.092Z,28.1
2022-07-29T10:38:28.235Z,28.34
2022-07-29T10:40:29.145Z,28.87
2022-07-29T10:42:34.414Z,29.12
2022-07-29T10:44:31.401Z,29.24
2022-07-29T10:46:32.272Z,28.74
2022-07-29T10:48:33.168Z,28.48
2022-07-29T10:50:34.743Z,29.03
2022-07-29T10:52:35.798Z,28.91
2022-07-29T10:54:37.228Z,28.63
2022-07-29T10:56:37.963Z,28.88
2022-07-29T10:58:39.380Z,29
2022-07-29T11:00:40.249Z,28.12
2022-07-29T11:02:42.456Z,28.28
2022-07-29T11:04:42.604Z,27.65
2022-07-29T11:06:43.828Z,27.79
2022-07-29T11:08:44.697Z,27.61
2022-07-29T11:10:45.616Z,27.34
2022-07-29T11:12:47.354Z,27.65
2022-07-29T11:14:48.764Z,27.79
2022-07-29T11:16:49.914Z,27.34
2022-07-29T11:18:50.999Z,27.27
2022-07-29T11:20:52.920Z,27.24
2022-07-29T11:22:54.609Z,27.34
2022-07-29T11:24:55.617Z,27.7
2022-07-29T11:27:00.447Z,27.33
2022-07-29T11:28:58.538Z,27.3
2022-07-29T11:30:59.743Z,27.48
2022-07-29T11:33:01.422Z,27.36
2022-07-29T11:35:02.538Z,27.6
2022-07-29T11:37:03.272Z,27.42
2022-07-29T11:41:05.475Z,27.98
2022-07-29T11:43:07.174Z,28.22
2022-07-29T11:45:08.914Z,28.35
2022-07-29T11:47:10.676Z,28.32
2022-07-29T11:49:12.105Z,28.11
2022-07-29T11:51:13.413Z,28.02
2022-07-29T11:53:14.335Z,28.16
2022-07-29T11:55:58.810Z,28.34
2022-07-29T11:58:03.661Z,27.48
2022-07-29T12:00:04.832Z,27.5
2022-07-29T12:04:03.077Z,27.81
2022-07-29T12:06:04.217Z,27.84
2022-07-29T12:08:05.772Z,27.44
2022-07-29T12:10:07.363Z,27.38
2022-07-29T12:12:08.488Z,27.54
2022-07-29T12:14:09.397Z,27.36
2022-07-29T12:16:10.717Z,27.44
2022-07-29T12:18:12.415Z,27.46
2022-07-29T12:20:13.840Z,27.56
2022-07-29T12:22:15.089Z,27.68
2022-07-29T12:24:17.613Z,27.54
2022-07-29T12:26:21.975Z,27.27
2022-07-29T12:28:27.015Z,27.37
2022-07-29T12:30:21.779Z,27.29
2022-07-29T12:32:23.511Z,27.32
2022-07-29T12:34:24.539Z,27.21
2022-07-29T12:36:25.485Z,27.02
2022-07-29T12:38:26.757Z,26.93
2022-07-29T12:40:28.056Z,27.06
2022-07-29T12:42:29.019Z,26.93
2022-07-29T12:44:30.251Z,27.01
2022-07-29T12:46:31.499Z,26.96
2022-07-29T12:48:32.904Z,27.02
2022-07-29T12:50:34.827Z,26.9
2022-07-29T12:52:35.764Z,27.02
2022-07-29T12:54:37.266Z,26.78
2022-07-29T12:56:47.376Z,26.67
2022-07-29T12:58:39.557Z,26.62
2022-07-29T13:00:40.651Z,26.36
2022-07-29T13:02:42.083Z,26.65
2022-07-29T13:04:42.981Z,26.58
2022-07-29T13:06:45.821Z,26.78
2022-07-29T13:08:45.174Z,26.73
2022-07-29T13:10:46.477Z,26.69
2022-07-29T13:12:47.275Z,26.6
2022-07-29T13:16:49.459Z,26.32
2022-07-29T13:18:50.551Z,26.38
2022-07-29T13:20:51.446Z,26.22
2022-07-29T13:22:52.687Z,25.78
2022-07-29T13:24:54.459Z,25.01
2022-07-29T13:26:55.408Z,24.97
2022-07-29T13:28:57.081Z,24.82
2022-07-29T13:30:58.808Z,24.73
2022-07-29T13:33:00.359Z,24.54
2022-07-29T13:35:04.961Z,24.43
2022-07-29T13:37:03.908Z,23.58
2022-07-29T13:39:05.013Z,23.19
2022-07-29T13:41:06.210Z,22.86
2022-07-29T13:43:07.930Z,22.18
2022-07-29T13:45:09.497Z,21.73
2022-07-29T13:47:10.760Z,21.3
2022-07-29T13:49:12.018Z,20.91
2022-07-29T13:51:13.552Z,20.71
2022-07-29T13:53:17.436Z,20.57
2022-07-29T13:55:15.667Z,20.7
2022-07-29T13:57:17.489Z,20.75
2022-07-29T13:59:19.212Z,20.67
2022-07-29T14:01:20.608Z,20.71
2022-07-29T14:03:21.940Z,20.79
2022-07-29T14:05:23.640Z,20.9
2022-07-29T14:07:25.344Z,20.89
2022-07-29T14:09:27.052Z,20.73
2022-07-29T14:11:28.395Z,20.74
2022-07-29T14:13:29.508Z,20.7
2022-07-29T14:15:31.255Z,20.85
2022-07-29T14:17:32.482Z,20.85
2022-07-29T14:19:33.482Z,20.85
2022-07-29T14:21:35.238Z,20.85
2022-07-29T14:23:36.166Z,20.83
2022-07-29T14:25:37.139Z,20.82
2022-07-29T14:27:38.827Z,20.88
2022-07-29T14:29:40.449Z,20.5
2022-07-29T14:31:41.755Z,20.51
2022-07-29T14:33:43.051Z,20.36
2022-07-29T14:35:44.861Z,20.34
2022-07-29T14:37:46.690Z,20.44
2022-07-29T14:39:47.899Z,20.22
2022-07-29T14:41:49.298Z,19.84
2022-07-29T14:43:50.702Z,19.51
2022-07-29T14:45:54.228Z,19.32
2022-07-29T14:47:56.520Z,19.31
2022-07-29T14:49:55.423Z,19.27
2022-07-29T14:51:57.275Z,19.24
2022-07-29T14:53:58.432Z,19.25
2022-07-29T14:56:10.243Z,19.14
2022-07-29T14:58:08.914Z,19.06
2022-07-29T15:00:03.453Z,19.03
2022-07-29T15:02:05.221Z,19.05
2022-07-29T15:04:06.105Z,19.1
2022-07-29T15:06:07.487Z,19.07
2022-07-29T15:08:08.653Z,19.18
2022-07-29T15:10:10.307Z,19.1
2022-07-29T15:12:11.315Z,19.12
2022-07-29T15:14:12.895Z,19.2
2022-07-29T15:16:13.895Z,19.35
2022-07-29T15:18:15.355Z,19.3
2022-07-29T15:20:16.755Z,19.34
2022-07-29T15:22:18.325Z,19.3
2022-07-29T15:24:19.499Z,19.32
2022-07-29T15:26:20.571Z,19.44
2022-07-29T15:28:22.478Z,19.54
2022-07-29T15:30:27.956Z,19.51
2022-07-29T15:32:25.467Z,19.57
2022-07-29T15:34:26.462Z,19.53
2022-07-29T15:36:50.557Z,19.56
2022-07-29T15:40:30.878Z,19.41
2022-07-29T15:42:31.781Z,19.42
2022-07-29T15:44:33.063Z,19.32
2022-07-29T15:46:34.462Z,19.19
2022-07-29T15:48:36.200Z,19.46
2022-07-29T15:50:37.752Z,19.33
2022-07-29T15:52:39.266Z,19.42
2022-07-29T15:54:40.101Z,19.55
2022-07-29T15:56:41.760Z,19.5
2022-07-29T15:58:42.772Z,19.57
2022-07-29T16:00:44.346Z,19.59
2022-07-29T16:02:45.850Z,19.67
2022-07-29T16:04:46.854Z,19.79
2022-07-29T16:06:48.091Z,19.66
2022-07-29T16:08:49.172Z,19.56
2022-07-29T16:10:50.866Z,19.54
2022-07-29T16:12:52.673Z,19.54
2022-07-29T16:14:54.463Z,19.58
2022-07-29T16:16:56.527Z,19.64
2022-07-29T16:18:57.383Z,19.5
2022-07-29T16:20:58.332Z,19.39
2022-07-29T16:22:59.892Z,19.14
2022-07-29T16:25:01.517Z,19.13
2022-07-29T16:27:02.761Z,19.05
2022-07-29T16:29:03.881Z,19.18
2022-07-29T16:31:05.399Z,19.09
2022-07-29T16:33:08.303Z,18.99
2022-07-29T16:35:07.863Z,18.99
2022-07-29T16:37:09.019Z,19.03
2022-07-29T16:39:10.525Z,18.88
2022-07-29T16:41:11.480Z,19.04
2022-07-29T16:43:12.919Z,19.08
2022-07-29T16:45:14.600Z,19.08
2022-07-29T16:47:15.843Z,19.05
2022-07-29T16:49:19.304Z,19.05
2022-07-29T16:51:18.407Z,19.04
2022-07-29T16:53:19.371Z,19.15
2022-07-29T16:55:21.071Z,19.24
2022-07-29T16:57:22.032Z,19.18
2022-07-29T16:59:23.635Z,19.26
2022-07-29T17:01:24.769Z,19.32
2022-07-29T17:03:25.583Z,19.32
2022-07-29T17:05:26.662Z,19.29
2022-07-29T17:07:27.975Z,19.41
2022-07-29T17:09:28.916Z,19.41
2022-07-29T17:11:51.500Z,19.32
2022-07-29T17:13:31.060Z,19.24
2022-07-29T17:15:32.445Z,19.27
2022-07-29T17:17:38.520Z,19.24
2022-07-29T17:21:36.942Z,19.27
2022-07-29T17:23:38.255Z,19.33
2022-07-29T17:25:39.813Z,19.2
2022-07-29T17:27:40.783Z,19.28
2022-07-29T17:29:42.174Z,19.29
2022-07-29T17:31:43.905Z,19.18
2022-07-29T17:33:44.857Z,19.08
2022-07-29T17:35:46.239Z,18.99
2022-07-29T17:37:47.512Z,18.96
2022-07-29T17:39:49.202Z,18.87
2022-07-29T17:41:50.522Z,18.81
2022-07-29T17:43:52.375Z,18.88
2022-07-29T17:45:55.859Z,18.9
2022-07-29T17:47:54.807Z,18.93
2022-07-29T17:49:56.158Z,19.03
2022-07-29T17:52:00.711Z,18.94
2022-07-29T17:53:58.846Z,18.89
2022-07-29T17:56:00.444Z,18.94
2022-07-29T17:58:02.104Z,18.95
2022-07-29T18:00:03.269Z,18.99
2022-07-29T18:02:04.543Z,18.94
2022-07-29T18:04:05.965Z,19.01
2022-07-29T18:06:07.739Z,19.05
2022-07-29T18:08:08.975Z,19.05
2022-07-29T18:10:10.678Z,19
2022-07-29T18:12:12.156Z,19.01
2022-07-29T18:14:13.248Z,19.05
2022-07-29T18:16:14.922Z,19.08
2022-07-29T18:18:16.570Z,19.1
2022-07-29T18:20:18.186Z,19.1
2022-07-29T18:22:19.683Z,19.02
2022-07-29T18:24:21.071Z,19.02
2022-07-29T18:26:22.612Z,18.96
2022-07-29T18:28:23.908Z,18.99
2022-07-29T18:30:25.650Z,18.91
2022-07-29T18:32:28.681Z,18.85
2022-07-29T18:34:28.706Z,18.85
2022-07-29T18:36:29.661Z,18.78
2022-07-29T18:38:31.343Z,18.78
2022-07-29T18:41:16.099Z,18.75
2022-07-29T18:43:17.305Z,18.71
2022-07-29T18:45:19.668Z,18.76
2022-07-29T18:47:19.853Z,18.82
2022-07-29T18:49:21.444Z,18.84
2022-07-29T18:51:22.324Z,18.82
2022-07-29T18:53:24.025Z,18.86
2022-07-29T18:55:25.585Z,18.89
2022-07-29T18:57:53.420Z,19
2022-07-29T18:59:28.617Z,19.02
2022-07-29T19:01:31.559Z,18.99
2022-07-29T19:03:31.590Z,18.87
2022-07-29T19:05:32.882Z,18.97
2022-07-29T19:07:34.500Z,18.91
2022-07-29T19:09:35.808Z,18.88
2022-07-29T19:11:37.065Z,18.84
2022-07-29T19:13:38.667Z,18.85
2022-07-29T19:15:40.231Z,18.98
2022-07-29T19:17:41.855Z,18.91
2022-07-29T19:19:42.792Z,18.77
2022-07-29T19:21:44.586Z,18.45
2022-07-29T19:23:59.960Z,18.4
2022-07-29T19:25:53.865Z,18.34
2022-07-29T19:27:48.560Z,18.13
2022-07-29T19:29:49.971Z,18.11
2022-07-29T19:31:51.398Z,17.99
2022-07-29T19:33:52.387Z,17.83
2022-07-29T19:35:55.023Z,17.8
2022-07-29T19:37:55.664Z,17.83
2022-07-29T19:39:57.440Z,17.85
2022-07-29T19:42:01.606Z,17.89
2022-07-29T19:43:59.840Z,17.78
2022-07-29T19:46:01.185Z,17.58
2022-07-29T19:48:02.933Z,17.54
2022-07-29T19:50:04.219Z,17.7
2022-07-29T19:52:05.177Z,17.77
2022-07-29T19:54:06.143Z,17.62
2022-07-29T19:56:07.198Z,17.64
2022-07-29T19:58:08.411Z,17.69
2022-07-29T20:00:11.212Z,17.61
2022-07-29T20:02:11.204Z,17.56
2022-07-29T20:04:12.024Z,17.52
2022-07-29T20:06:13.324Z,17.49
2022-07-29T20:08:14.285Z,17.44
2022-07-29T20:10:15.637Z,17.43
2022-07-29T20:12:17.022Z,17.39
2022-07-29T20:14:18.492Z,17.38
2022-07-29T20:16:19.449Z,17.39
2022-07-29T20:18:20.477Z,17.37
2022-07-29T20:20:21.467Z,17.37
2022-07-29T20:22:22.322Z,17.34
2022-07-29T20:24:23.638Z,17.38
2022-07-29T20:26:24.624Z,17.38
2022-07-29T20:28:26.119Z,17.33
2022-07-29T20:30:27.496Z,17.33
2022-07-29T20:32:28.738Z,17.3
2022-07-29T20:34:29.991Z,17.33
2022-07-29T20:36:39.609Z,17.31
2022-07-29T20:38:32.942Z,17.34
2022-07-29T20:40:34.008Z,17.29
2022-07-29T20:42:35.031Z,17.3
2022-07-29T20:44:36.341Z,17.18
2022-07-29T20:46:37.286Z,17.14
2022-07-29T20:48:38.132Z,17.2
2022-07-29T20:50:39.859Z,17.19
2022-07-29T20:52:40.742Z,17.08
2022-07-29T20:54:42.305Z,17.14
2022-07-29T20:56:43.729Z,17.06
2022-07-29T20:58:44.821Z,17.01
2022-07-29T21:00:46.211Z,16.91
2022-07-29T21:02:48.001Z,17
2022-07-29T21:04:49.389Z,17.02
2022-07-29T21:06:50.949Z,16.9
2022-07-29T21:08:52.307Z,16.86
2022-07-29T21:10:53.836Z,16.83
2022-07-29T21:12:55.247Z,16.85
2022-07-29T21:14:56.527Z,16.85
2022-07-29T21:16:58.537Z,16.85
2022-07-29T21:18:59.193Z,16.84
2022-07-29T21:21:00.833Z,16.81
2022-07-29T21:23:01.875Z,16.79
2022-07-29T21:25:03.237Z,16.83
2022-07-29T21:29:06.322Z,16.79
2022-07-29T21:31:07.997Z,16.81
2022-07-29T21:33:09.225Z,16.75
2022-07-29T21:35:15.320Z,16.77
2022-07-29T21:37:11.403Z,16.74
2022-07-29T21:39:13.036Z,16.59
2022-07-29T21:41:14.054Z,16.54
2022-07-29T21:43:15.517Z,16.56
2022-07-29T21:45:16.944Z,16.46
2022-07-29T21:47:18.774Z,16.39
2022-07-29T21:49:20.095Z,16.35
2022-07-29T21:51:21.042Z,16.42
2022-07-29T21:53:22.925Z,16.32
2022-07-29T21:55:24.373Z,16.3
2022-07-29T21:57:24.845Z,16.3
2022-07-29T21:59:25.812Z,16.29
2022-07-29T22:01:27.166Z,16.27
2022-07-29T22:03:28.428Z,16.2
2022-07-29T22:05:29.456Z,16.17
2022-07-29T22:07:54.851Z,16.08
2022-07-29T22:09:32.696Z,16.1
2022-07-29T22:11:34.181Z,16.07
2022-07-29T22:13:35.404Z,16.08
2022-07-29T22:15:36.350Z,16.06
2022-07-29T22:17:37.575Z,15.92
2022-07-29T22:19:39.164Z,15.85
2022-07-29T22:21:40.251Z,15.72
2022-07-29T22:23:42.093Z,15.71
2022-07-29T22:25:43.791Z,15.82
2022-07-29T22:27:45.380Z,15.89
2022-07-29T22:29:47.102Z,15.85
2022-07-29T22:31:48.544Z,15.85
2022-07-29T22:33:50.222Z,15.94
2022-07-29T22:35:51.228Z,16.01
2022-07-29T22:37:52.802Z,16.05
2022-07-29T22:39:53.941Z,15.86
2022-07-29T22:41:54.766Z,15.79
2022-07-29T22:43:55.886Z,15.93
2022-07-29T22:45:57.193Z,16.07
2022-07-29T22:47:59.269Z,16.22
2022-07-29T22:50:00.157Z,16.26
2022-07-29T22:52:01.745Z,16.28
2022-07-29T22:54:03.511Z,15.85
2022-07-29T22:56:04.953Z,15.81
2022-07-29T22:58:06.031Z,15.88
2022-07-29T23:00:06.963Z,16.11
2022-07-29T23:02:08.205Z,16.19
2022-07-29T23:04:09.862Z,16.11
2022-07-29T23:06:10.872Z,15.85
2022-07-29T23:08:12.689Z,16
2022-07-29T23:10:14.302Z,15.89
2022-07-29T23:12:15.586Z,15.9
2022-07-29T23:14:17.357Z,15.85
2022-07-29T23:16:26.164Z,15.83
2022-07-29T23:18:20.154Z,16.05
2022-07-29T23:20:21.529Z,16.07
2022-07-29T23:22:22.566Z,16.09
2022-07-29T23:24:24.315Z,16.17
2022-07-29T23:26:25.718Z,16.17
2022-07-29T23:28:27.419Z,16.14
2022-07-29T23:30:29.087Z,16.1
2022-07-29T23:34:31.276Z,16.09
2022-07-29T23:36:33.143Z,15.99
2022-07-29T23:38:34.039Z,15.88
2022-07-29T23:40:35.576Z,15.88
2022-07-29T23:42:36.760Z,15.83
2022-07-29T23:44:38.197Z,15.83
2022-07-29T23:46:39.566Z,15.8
2022-07-29T23:48:41.086Z,15.7
2022-07-29T23:50:42.314Z,15.79
2022-07-29T23:52:43.644Z,15.71
2022-07-29T23:54:45.108Z,15.81
2022-07-29T23:56:46.756Z,15.78
2022-07-29T23:58:47.799Z,15.76
